Aérodrome :
LOGIN :

S'inscrire | Disclaimer

   EN    FR    IT 

 










Légende :    VFR   VFR Marginal   IFR   IFR Intensif   IFR Très Intensif
Visi : 
Plafond : 
>= 8 km
>= 3000ft
5 à 8 km
1000 à 3000 ft
1500m à 5 km
500 à 1000 ft
800 à 1500m
200 à 500 ft
< 800m
< 200 ft
Symboles :   Orages  Brouillard  Fortes neiges  Fortes précipitations  Vent > 20 kt
SIGMETs :   Divers  Orages  Givrage  Turbulence  Onde Orograph.  Cendres Volcan.







- Altitude de l'aérodrome : 144 ft
- Code IATA : PGF
- Voir les cartes d'approche


LFMP - Perpignan

DERNIER METAR :
  • 140800Z AUTO 28011KT 260V320 9999 OVC100 15/06 Q1015 TEMPO 30015G27KT

METARs EXPIRÉS :
  • 140730Z AUTO 29013KT 9999 OVC100 15/08 Q1015 TEMPO 30015G27KT
  • 140700Z AUTO 30013KT 9999 BKN096 OVC110 15/08 Q1015 TEMPO 30015G27KT
  • 140630Z AUTO 30009KT 270V340 9999 SCT076 BKN092 OVC110 15/08 Q1015 TEMPO 30015G27KT
  • 140600Z AUTO 30009KT 9999 FEW054 OVC120 15/08 Q1014 TEMPO 30015G27KT
  • 140530Z AUTO 32013KT 9999 FEW056 BKN110 OVC220 15/08 Q1014 TEMPO 30015G27KT

TAF TAF LFMP
Valide du 14 à 03h jusqu'au 15 à 03h UTC


140200Z 1403/1503 29012KT 9999 BKN045
TEMPO 1404/1410 30015G27KT
BECMG 1412/1415 VRB03KT
ATIS : +33 4 68 63 75 12
Pas de NOTAMs connus pour ce terrain.
2 SIGMETs publiés pour la FIR Marseille (LFMM) :
 
Turbulence forte
LFMM SIGMET 3 VALID 140600/141000 LFPW
LFMM MARSEILLE FIR/UIR SEV TURB FCST WI N4345 E00730 - N4315 E00945 - N4115 E00945 - N4115 E00845 - N4230 E00830 - N4330 E00645 - N4345 E00730 SFC/FL070 STNR INTSF=
Onde orographique forte
LFMM SIGMET 2 VALID 140600/140900 LFPW
LFMM MARSEILLE FIR/UIR SEV MTW FCST E OF E00900 SFC/FL320 STNR NC=



MET'MAP, la Météo Aéronautique d'un coup d'oeil ! - Copyright ORBIFLY Décembre 2007 - Disclaimer

ORBIFLY MET'MAP TEAM :

Programmation & Développement : Alexandra Zaïnal
Conception & Développement : Baudouin d'Aumeries
Co-Programmation & Développement : Marc-Olivier Méhu
Soutien technique & logistique : Manuel Goepfert

Contact : metmap@orbifly.com




SOURCES & CREDITS :

   NOAA